createdAt,value
2022-09-26T00:01:31.621Z,98175.34
2022-09-26T00:04:01.421Z,98169.41
2022-09-26T00:06:28.417Z,98167.53
2022-09-26T00:08:56.049Z,98163.72
2022-09-26T00:11:31.944Z,98159.94
2022-09-26T00:14:01.093Z,98162.94
2022-09-26T00:16:27.823Z,98168.63
2022-09-26T00:18:55.871Z,98160.50
2022-09-26T00:21:23.633Z,98157.78
2022-09-26T00:23:50.470Z,98158.59
2022-09-26T00:26:19.315Z,98158.63
2022-09-26T00:28:46.152Z,98156.44
2022-09-26T00:31:19.171Z,98157.25
2022-09-26T00:33:47.022Z,98160.47
2022-09-26T00:36:13.475Z,98152.94
2022-09-26T00:38:39.976Z,98148.06
2022-09-26T00:41:07.428Z,98152.69
2022-09-26T00:43:40.238Z,98150.25
2022-09-26T00:46:20.964Z,98140.50
2022-09-26T00:49:14.016Z,98138.34
2022-09-26T00:51:43.004Z,98126.78
2022-09-26T00:54:14.564Z,98134.03
2022-09-26T00:56:43.247Z,98129.19
2022-09-26T00:59:22.164Z,98127.31
2022-09-26T01:01:51.227Z,98122.47
2022-09-26T01:04:18.075Z,98119.47
2022-09-26T01:06:45.641Z,98123.78
2022-09-26T01:09:14.927Z,98127.84
2022-09-26T01:11:43.437Z,98113.00
2022-09-26T01:14:12.006Z,98113.28
2022-09-26T01:16:41.854Z,98112.19
2022-09-26T01:19:24.616Z,98102.47
2022-09-26T01:22:18.914Z,98101.94
2022-09-26T01:25:00.745Z,98104.38
2022-09-26T01:27:47.351Z,98096.25
2022-09-26T01:30:21.548Z,98096.25
2022-09-26T01:33:16.469Z,98101.41
2022-09-26T01:35:51.990Z,98095.75
2022-09-26T01:38:44.614Z,98093.28
2022-09-26T01:41:20.225Z,98091.69
2022-09-26T01:44:17.498Z,98090.84
2022-09-26T01:46:56.750Z,98081.97
2022-09-26T01:49:33.250Z,98078.44
2022-09-26T01:52:02.627Z,98078.72
2022-09-26T01:54:37.534Z,98077.34
2022-09-26T01:57:10.718Z,98070.31
2022-09-26T01:59:47.686Z,98070.84
2022-09-26T02:02:27.401Z,98071.94
2022-09-26T02:04:59.927Z,98060.28
2022-09-26T02:07:40.231Z,98071.94
2022-09-26T02:10:16.565Z,98063.06
2022-09-26T02:12:47.712Z,98064.41
2022-09-26T02:15:17.800Z,98063.88
2022-09-26T02:17:49.158Z,98054.13
2022-09-26T02:20:24.025Z,98066.03
2022-09-26T02:22:50.738Z,98056.31
2022-09-26T02:25:17.318Z,98056.31
2022-09-26T02:27:44.092Z,98052.00
2022-09-26T02:30:11.122Z,98047.19
2022-09-26T02:32:38.333Z,98046.09
2022-09-26T02:35:34.675Z,98049.59
2022-09-26T02:38:02.078Z,98054.47
2022-09-26T02:40:42.258Z,98049.31
2022-09-26T02:43:26.106Z,98055.00
2022-09-26T02:46:07.683Z,98046.06
2022-09-26T02:49:13.201Z,98048.78
2022-09-26T02:51:59.839Z,98040.16
2022-09-26T02:54:46.567Z,98040.69
2022-09-26T02:57:34.112Z,98039.06
2022-09-26T03:00:17.043Z,98035.28
2022-09-26T03:02:52.455Z,98034.75
2022-09-26T03:05:25.133Z,98039.63
2022-09-26T03:07:59.533Z,98034.75
2022-09-26T03:10:27.475Z,98040.69
2022-09-26T03:13:00.299Z,98033.69
2022-09-26T03:15:28.562Z,98040.13
2022-09-26T03:17:56.730Z,98041.22
2022-09-26T03:20:23.395Z,98037.69
2022-09-26T03:22:50.837Z,98030.44
2022-09-26T03:25:21.277Z,98031.53
2022-09-26T03:27:48.931Z,98039.06
2022-09-26T03:30:17.489Z,98028.56
2022-09-26T03:32:44.226Z,98024.75
2022-09-26T03:35:10.825Z,98021.78
2022-09-26T03:37:37.412Z,98022.59
2022-09-26T03:40:06.644Z,98026.13
2022-09-26T03:42:33.975Z,98023.94
2022-09-26T03:45:01.415Z,98019.88
2022-09-26T03:47:28.033Z,98021.78
2022-09-26T03:49:54.973Z,98014.25
2022-09-26T03:52:21.802Z,98010.75
2022-09-26T03:54:48.530Z,98013.69
2022-09-26T03:57:16.253Z,98012.09
2022-09-26T03:59:42.874Z,98011.56
2022-09-26T04:02:10.027Z,98009.38
2022-09-26T04:04:36.580Z,98005.06
2022-09-26T04:07:03.188Z,97992.66
2022-09-26T04:09:29.941Z,97996.47
2022-09-26T04:11:56.451Z,98000.75
2022-09-26T04:14:23.115Z,97992.69
2022-09-26T04:16:49.577Z,97987.25
2022-09-26T04:19:16.133Z,97990.22
2022-09-26T04:21:42.688Z,97989.44
2022-09-26T04:24:14.754Z,97982.94
2022-09-26T04:26:42.948Z,97982.41
2022-09-26T04:29:10.343Z,97984.59
2022-09-26T04:31:37.748Z,97973.50
2022-09-26T04:34:05.134Z,97971.09
2022-09-26T04:36:32.591Z,97964.34
2022-09-26T04:39:00.556Z,97962.97
2022-09-26T04:41:28.612Z,97957.03
2022-09-26T04:43:55.689Z,97955.16
2022-09-26T04:46:29.603Z,97954.91
2022-09-26T04:48:59.547Z,97961.38
2022-09-26T04:51:27.537Z,97949.78
2022-09-26T04:53:54.050Z,97952.22
2022-09-26T04:56:22.739Z,97954.91
2022-09-26T04:58:49.605Z,97954.38
2022-09-26T05:01:18.861Z,97950.88
2022-09-26T05:03:45.399Z,97948.44
2022-09-26T05:06:13.039Z,97946.81
2022-09-26T05:08:41.097Z,97943.31
2022-09-26T05:11:09.152Z,97941.94
2022-09-26T05:13:37.774Z,97940.88
2022-09-26T05:16:05.689Z,97934.13
2022-09-26T05:18:33.662Z,97929.81
2022-09-26T05:21:01.418Z,97939.53
2022-09-26T05:23:46.706Z,97935.75
2022-09-26T05:26:31.803Z,97936.06
2022-09-26T05:29:08.401Z,97935.78
2022-09-26T05:31:40.019Z,97941.94
2022-09-26T05:34:08.643Z,97941.16
2022-09-26T05:36:35.096Z,97941.41
2022-09-26T05:39:02.298Z,97947.91
2022-09-26T05:41:31.212Z,97953.00
2022-09-26T05:43:58.056Z,97945.72
2022-09-26T05:46:27.127Z,97948.13
2022-09-26T05:48:55.466Z,97950.03
2022-09-26T05:51:22.236Z,97942.47
2022-09-26T05:53:49.611Z,97931.69
2022-09-26T05:56:19.633Z,97937.13
2022-09-26T05:58:46.772Z,97937.63
2022-09-26T06:01:18.400Z,97933.88
2022-09-26T06:03:46.906Z,97937.63
2022-09-26T06:06:16.145Z,97926.28
2022-09-26T06:08:43.720Z,97930.09
2022-09-26T06:11:18.570Z,97923.06
2022-09-26T06:13:45.991Z,97930.88
2022-09-26T06:16:16.211Z,97921.97
2022-09-26T06:18:42.659Z,97925.22
2022-09-26T06:21:12.287Z,97923.88
2022-09-26T06:23:39.216Z,97926.31
2022-09-26T06:26:08.741Z,97940.84
2022-09-26T06:28:36.236Z,97930.63
2022-09-26T06:31:13.420Z,97927.63
2022-09-26T06:33:39.896Z,97923.25
2022-09-26T06:36:09.374Z,97917.59
2022-09-26T06:38:36.792Z,97915.69
2022-09-26T06:41:04.353Z,97916.97
2022-09-26T06:43:31.381Z,97915.31
2022-09-26T06:45:57.798Z,97924.78
2022-09-26T06:48:25.400Z,97917.47
2022-09-26T06:50:53.372Z,97913.75
2022-09-26T06:53:20.277Z,97922.44
2022-09-26T06:55:46.706Z,97915.38
2022-09-26T06:58:13.319Z,97913.75
2022-09-26T07:00:40.499Z,97918.63
2022-09-26T07:03:08.206Z,97911.34
2022-09-26T07:05:35.081Z,97906.78
2022-09-26T07:08:02.461Z,97899.19
2022-09-26T07:10:30.493Z,97900.25
2022-09-26T07:13:06.228Z,97897.34
2022-09-26T07:15:35.270Z,97895.84
2022-09-26T07:18:04.396Z,97886.78
2022-09-26T07:20:33.250Z,97893.44
2022-09-26T07:23:04.734Z,97884.53
2022-09-26T07:25:31.945Z,97886.44
2022-09-26T07:27:59.309Z,97888.66
2022-09-26T07:30:26.014Z,97885.38
2022-09-26T07:32:52.422Z,97875.59
2022-09-26T07:35:18.828Z,97874.50
2022-09-26T07:37:45.287Z,97882.84
2022-09-26T07:40:12.143Z,97878.00
2022-09-26T07:42:38.864Z,97886.25
2022-09-26T07:45:28.795Z,97884.53
2022-09-26T07:48:11.098Z,97892.09
2022-09-26T07:50:38.049Z,97889.06
2022-09-26T07:53:04.611Z,97882.69
2022-09-26T07:55:31.173Z,97899.25
2022-09-26T07:57:57.923Z,97889.91
2022-09-26T08:00:24.641Z,97889.16
2022-09-26T08:02:52.712Z,97892.44
2022-09-26T08:05:24.518Z,97892.13
2022-09-26T08:07:51.103Z,97888.97
2022-09-26T08:10:23.981Z,97891.69
2022-09-26T08:12:50.651Z,97887.28
2022-09-26T08:15:17.323Z,97889.25
2022-09-26T08:17:44.191Z,97886.97
2022-09-26T08:20:11.084Z,97886.22
2022-09-26T08:22:37.615Z,97889.03
2022-09-26T08:25:06.761Z,97886.72
2022-09-26T08:27:34.433Z,97878.78
2022-09-26T08:30:02.710Z,97881.09
2022-09-26T08:32:32.147Z,97877.56
2022-09-26T08:34:58.787Z,97870.47
2022-09-26T08:37:28.848Z,97876.66
2022-09-26T08:39:55.234Z,97865.66
2022-09-26T08:42:48.906Z,97864.88
2022-09-26T08:45:42.113Z,97862.94
2022-09-26T08:48:42.467Z,97860.88
2022-09-26T08:51:39.828Z,97851.53
2022-09-26T08:54:20.182Z,97856.00
2022-09-26T08:56:55.406Z,97852.44
2022-09-26T08:59:31.789Z,97849.97
2022-09-26T09:02:05.137Z,97842.31
2022-09-26T09:04:38.325Z,97847.50
2022-09-26T09:07:17.151Z,97837.59
2022-09-26T09:09:43.700Z,97842.13
2022-09-26T09:12:33.800Z,97846.81
2022-09-26T09:15:33.328Z,97841.94
2022-09-26T09:18:29.272Z,97836.09
2022-09-26T09:20:55.665Z,97836.97
2022-09-26T09:23:22.010Z,97837.28
2022-09-26T09:29:10.488Z,97838.31
2022-09-26T09:31:41.497Z,97836.31
2022-09-26T09:34:31.208Z,97834.94
2022-09-26T09:37:04.088Z,97826.16
2022-09-26T09:39:35.246Z,97830.16
2022-09-26T09:42:10.038Z,97824.16
2022-09-26T09:44:48.721Z,97823.16
2022-09-26T09:47:17.521Z,97820.72
2022-09-26T09:49:47.254Z,97818.38
2022-09-26T09:52:44.255Z,97825.75
2022-09-26T09:55:25.451Z,97816.03
2022-09-26T09:58:18.944Z,97792.00
2022-09-26T10:01:00.895Z,97787.56
2022-09-26T10:03:45.384Z,97785.03
2022-09-26T10:06:44.758Z,97782.75
2022-09-26T10:09:35.571Z,97776.31
2022-09-26T10:11:56.499Z,97764.19
2022-09-26T10:14:38.926Z,97768.41
2022-09-26T10:17:11.857Z,97772.41
2022-09-26T10:19:41.077Z,97772.44
2022-09-26T10:22:32.514Z,97771.69
2022-09-26T10:25:18.911Z,97766.88
2022-09-26T10:27:53.583Z,97773.97
2022-09-26T10:30:20.099Z,97769.69
2022-09-26T10:32:56.424Z,97771.78
2022-09-26T10:35:25.330Z,97773.97
2022-09-26T10:38:03.038Z,97770.06
2022-09-26T10:40:48.201Z,97769.06
2022-09-26T10:43:34.091Z,97762.06
2022-09-26T10:46:19.166Z,97763.97
2022-09-26T10:48:49.605Z,97766.88
2022-09-26T10:51:24.842Z,97770.41
2022-09-26T10:53:58.691Z,97768.91
2022-09-26T10:56:30.258Z,97766.47
2022-09-26T10:59:10.122Z,97757.59
2022-09-26T11:01:42.947Z,97750.34
2022-09-26T11:04:37.579Z,97758.88
2022-09-26T11:07:07.440Z,97743.88
2022-09-26T11:09:35.445Z,97741.53
2022-09-26T11:12:29.148Z,97746.97
2022-09-26T11:14:58.874Z,97741.34
2022-09-26T11:17:55.364Z,97738.81
2022-09-26T11:20:44.232Z,97737.31
2022-09-26T11:23:31.682Z,97728.88
2022-09-26T11:26:21.370Z,97729.19
2022-09-26T11:29:03.763Z,97724.84
2022-09-26T11:31:36.248Z,97718.63
2022-09-26T11:34:04.516Z,97727.28
2022-09-26T11:36:35.933Z,97713.94
2022-09-26T11:39:40.848Z,97711.72
2022-09-26T11:42:38.827Z,97709.91
2022-09-26T11:45:47.593Z,97710.09
2022-09-26T11:48:20.450Z,97697.44
2022-09-26T11:51:17.570Z,97697.72
2022-09-26T11:53:47.235Z,97693.25
2022-09-26T11:56:29.810Z,97684.28
2022-09-26T11:59:27.897Z,97681.28
2022-09-26T12:02:32.710Z,97668.72
2022-09-26T12:05:22.427Z,97670.75
2022-09-26T12:08:19.307Z,97670.75
2022-09-26T12:11:00.726Z,97656.09
2022-09-26T12:13:52.170Z,97655.75
2022-09-26T12:16:24.669Z,97659.22
2022-09-26T12:19:20.616Z,97656.25
2022-09-26T12:22:30.876Z,97651.09
2022-09-26T12:25:37.279Z,97644.81
2022-09-26T12:28:17.210Z,97639.56
2022-09-26T12:30:56.454Z,97623.22
2022-09-26T12:33:30.467Z,97626.13
2022-09-26T12:36:06.145Z,97619.19
2022-09-26T12:38:56.719Z,97625.75
2022-09-26T12:41:25.031Z,97614.88
2022-09-26T12:44:10.889Z,97618.09
2022-09-26T12:46:43.553Z,97620.19
2022-09-26T12:49:47.791Z,97611.84
2022-09-26T12:53:01.842Z,97609.25
2022-09-26T12:55:43.847Z,97604.16
2022-09-26T12:58:13.008Z,97594.88
2022-09-26T13:00:53.894Z,97580.19
2022-09-26T13:03:54.717Z,97574.84
2022-09-26T13:07:14.775Z,97586.44
2022-09-26T13:09:53.673Z,97577.38
2022-09-26T13:13:11.650Z,97577.72
2022-09-26T13:15:49.399Z,97573.22
2022-09-26T13:18:25.968Z,97572.56
2022-09-26T13:20:57.904Z,97571.78
2022-09-26T13:23:52.514Z,97563.59
2022-09-26T13:26:23.781Z,97560.88
2022-09-26T13:29:23.413Z,97553.06
2022-09-26T13:32:23.550Z,97539.09
2022-09-26T13:35:05.767Z,97538.78
2022-09-26T13:37:45.989Z,97540.72
2022-09-26T13:40:24.518Z,97532.72
2022-09-26T13:43:05.040Z,97530.81
2022-09-26T13:45:34.105Z,97527.22
2022-09-26T13:48:07.863Z,97522.09
2022-09-26T13:50:55.969Z,97521.19
2022-09-26T13:53:23.753Z,97523.06
2022-09-26T13:56:30.190Z,97518.75
2022-09-26T13:59:25.986Z,97518.31
2022-09-26T14:02:15.931Z,97512.53
2022-09-26T14:04:44.555Z,97510.94
2022-09-26T14:07:29.299Z,97501.16
2022-09-26T14:10:07.601Z,97505.50
2022-09-26T14:13:10.629Z,97496.69
2022-09-26T14:15:49.585Z,97492.19
2022-09-26T14:18:25.002Z,97486.75
2022-09-26T14:20:57.672Z,97485.31
2022-09-26T14:23:38.602Z,97480.00
2022-09-26T14:26:10.732Z,97477.28
2022-09-26T14:28:38.798Z,97477.59
2022-09-26T14:31:22.001Z,97474.22
2022-09-26T14:33:50.506Z,97466.88
2022-09-26T14:36:31.179Z,97471.66
2022-09-26T14:38:57.884Z,97463.66
2022-09-26T14:41:29.437Z,97461.59
2022-09-26T14:44:03.034Z,97461.06
2022-09-26T14:46:33.169Z,97463.31
2022-09-26T14:49:05.281Z,97458.03
2022-09-26T14:51:38.936Z,97454.53
2022-09-26T14:54:18.865Z,97457.72
2022-09-26T14:56:59.373Z,97456.09
2022-09-26T14:59:34.963Z,97449.19
2022-09-26T15:02:14.339Z,97450.44
2022-09-26T15:04:47.213Z,97451.06
2022-09-26T15:07:25.471Z,97438.28
2022-09-26T15:09:58.669Z,97444.50
2022-09-26T15:12:39.364Z,97441.16
2022-09-26T15:15:07.190Z,97433.19
2022-09-26T15:17:40.057Z,97440.66
2022-09-26T15:20:15.986Z,97438.53
2022-09-26T15:22:43.130Z,97435.38
2022-09-26T15:25:13.571Z,97437.94
2022-09-26T15:27:46.059Z,97429.66
2022-09-26T15:30:24.177Z,97432.50
2022-09-26T15:32:59.595Z,97425.09
2022-09-26T15:35:27.266Z,97415.53
2022-09-26T15:37:59.942Z,97405.94
2022-09-26T15:40:29.100Z,97406.56
2022-09-26T15:43:15.101Z,97413.28
2022-09-26T15:45:47.877Z,97412.59
2022-09-26T15:48:20.353Z,97406.69
2022-09-26T15:50:51.662Z,97413.47
2022-09-26T15:53:27.017Z,97408.78
2022-09-26T15:56:00.129Z,97414.66
2022-09-26T15:58:56.057Z,97413.88
2022-09-26T16:01:28.150Z,97416.28
2022-09-26T16:04:20.332Z,97411.31
2022-09-26T16:06:59.759Z,97413.25
2022-09-26T16:09:38.770Z,97420.53
2022-09-26T16:12:05.377Z,97413.34
2022-09-26T16:14:42.102Z,97412.59
2022-09-26T16:17:32.341Z,97404.81
2022-09-26T16:20:25.512Z,97412.63
2022-09-26T16:22:53.147Z,97409.88
2022-09-26T16:25:19.592Z,97413.78
2022-09-26T16:28:00.658Z,97416.03
2022-09-26T16:30:30.189Z,97420.13
2022-09-26T16:33:27.899Z,97409.59
2022-09-26T16:35:54.424Z,97411.03
2022-09-26T16:38:33.797Z,97413.22
2022-09-26T16:41:09.822Z,97415.84
2022-09-26T16:43:37.807Z,97408.75
2022-09-26T16:46:09.023Z,97409.34
2022-09-26T16:48:52.142Z,97408.75
2022-09-26T16:51:25.121Z,97406.94
2022-09-26T16:53:54.016Z,97406.94
2022-09-26T16:56:23.429Z,97406.25
2022-09-26T16:58:51.902Z,97404.34
2022-09-26T17:01:37.280Z,97415.06
2022-09-26T17:04:04.877Z,97413.06
2022-09-26T17:06:31.317Z,97410.06
2022-09-26T17:09:07.482Z,97411.06
2022-09-26T17:11:33.912Z,97413.97
2022-09-26T17:14:00.471Z,97412.16
2022-09-26T17:16:27.089Z,97415.56
2022-09-26T17:18:56.934Z,97414.16
2022-09-26T17:21:23.715Z,97410.16
2022-09-26T17:23:50.252Z,97420.38
2022-09-26T17:26:21.800Z,97415.78
2022-09-26T17:28:48.993Z,97401.94
2022-09-26T17:31:21.190Z,97398.00
2022-09-26T17:33:52.346Z,97405.34
2022-09-26T17:36:26.029Z,97408.47
2022-09-26T17:38:53.421Z,97400.72
2022-09-26T17:41:19.912Z,97389.59
2022-09-26T17:43:46.376Z,97390.50
2022-09-26T17:46:15.879Z,97384.97
2022-09-26T17:48:43.773Z,97389.91
2022-09-26T17:51:14.215Z,97378.69
2022-09-26T17:53:50.543Z,97372.06
2022-09-26T17:56:17.894Z,97369.44
2022-09-26T17:58:45.489Z,97364.44
2022-09-26T18:01:25.743Z,97361.22
2022-09-26T18:03:56.437Z,97356.78
2022-09-26T18:06:26.721Z,97362.34
2022-09-26T18:08:55.082Z,97359.22
2022-09-26T18:11:21.606Z,97352.28
2022-09-26T18:13:54.346Z,97352.81
2022-09-26T18:16:22.018Z,97342.69
2022-09-26T18:18:48.614Z,97341.38
2022-09-26T18:21:18.676Z,97344.78
2022-09-26T18:23:50.729Z,97337.06
2022-09-26T18:26:30.150Z,97342.25
2022-09-26T18:28:58.511Z,97337.75
2022-09-26T18:31:33.434Z,97337.38
2022-09-26T18:34:00.038Z,97336.66
2022-09-26T18:36:33.182Z,97340.44
2022-09-26T18:39:00.095Z,97336.06
2022-09-26T18:41:28.605Z,97333.63
2022-09-26T18:43:57.707Z,97337.56
2022-09-26T18:46:24.395Z,97329.75
2022-09-26T18:49:01.981Z,97341.56
2022-09-26T18:51:28.660Z,97337.78
2022-09-26T18:53:55.105Z,97342.75
2022-09-26T18:56:40.301Z,97343.47
2022-09-26T18:59:09.581Z,97353.41
2022-09-26T19:01:39.994Z,97348.06
2022-09-26T19:04:33.507Z,97350.34
2022-09-26T19:07:04.506Z,97347.75
2022-09-26T19:09:33.790Z,97353.84
2022-09-26T19:12:01.917Z,97348.09
2022-09-26T19:14:30.207Z,97354.09
2022-09-26T19:16:57.524Z,97355.91
2022-09-26T19:19:25.178Z,97359.91
2022-09-26T19:21:55.359Z,97354.22
2022-09-26T19:24:37.748Z,97359.03
2022-09-26T19:27:07.788Z,97354.50
2022-09-26T19:29:36.671Z,97358.25
2022-09-26T19:32:04.497Z,97361.53
2022-09-26T19:34:32.909Z,97355.56
2022-09-26T19:37:01.334Z,97368.28
2022-09-26T19:39:27.935Z,97363.69
2022-09-26T19:41:54.398Z,97349.44
2022-09-26T19:44:20.893Z,97354.84
2022-09-26T19:46:47.472Z,97358.38
2022-09-26T19:49:18.367Z,97349.53
2022-09-26T19:51:44.939Z,97354.94
2022-09-26T19:54:16.750Z,97360.84
2022-09-26T19:56:43.578Z,97352.81
2022-09-26T19:59:11.960Z,97344.56
2022-09-26T20:01:40.923Z,97348.00
2022-09-26T20:04:16.609Z,97340.84
2022-09-26T20:06:43.671Z,97340.25
2022-09-26T20:09:19.283Z,97336.25
2022-09-26T20:11:46.126Z,97331.94
2022-09-26T20:14:25.068Z,97328.56
2022-09-26T20:17:01.394Z,97323.75
2022-09-26T20:19:40.061Z,97321.91
2022-09-26T20:22:12.238Z,97324.41
2022-09-26T20:24:39.721Z,97310.63
2022-09-26T20:27:10.652Z,97303.31
2022-09-26T20:29:55.550Z,97303.00
2022-09-26T20:32:21.998Z,97294.63
2022-09-26T20:34:48.689Z,97292.78
2022-09-26T20:37:15.498Z,97293.59
2022-09-26T20:39:42.681Z,97298.69
2022-09-26T20:42:16.518Z,97291.41
2022-09-26T20:44:44.779Z,97290.47
2022-09-26T20:47:16.717Z,97275.63
2022-09-26T20:49:50.662Z,97284.88
2022-09-26T20:52:26.326Z,97267.53
2022-09-26T20:54:54.028Z,97259.69
2022-09-26T20:57:22.213Z,97258.38
2022-09-26T20:59:49.521Z,97260.19
2022-09-26T21:02:38.842Z,97249.19
2022-09-26T21:05:18.000Z,97241.81
2022-09-26T21:07:44.720Z,97233.72
2022-09-26T21:10:25.342Z,97237.53
2022-09-26T21:12:52.415Z,97228.16
2022-09-26T21:15:20.113Z,97221.56
2022-09-26T21:17:47.296Z,97217.53
2022-09-26T21:20:20.824Z,97216.06
2022-09-26T21:22:47.356Z,97208.50
2022-09-26T21:25:16.590Z,97208.97
2022-09-26T21:27:44.137Z,97198.53
2022-09-26T21:30:17.821Z,97206.75
2022-09-26T21:32:48.209Z,97199.03
2022-09-26T21:35:17.201Z,97190.34
2022-09-26T21:37:50.462Z,97180.03
2022-09-26T21:40:17.306Z,97184.44
2022-09-26T21:42:48.036Z,97182.84
2022-09-26T21:45:15.347Z,97175.56
2022-09-26T21:47:41.758Z,97167.53
2022-09-26T21:50:08.837Z,97166.75
2022-09-26T21:52:40.630Z,97176.81
2022-09-26T21:55:20.330Z,97166.22
2022-09-26T21:57:52.331Z,97166.22
2022-09-26T22:00:18.875Z,97159.31
2022-09-26T22:02:45.437Z,97162.28
2022-09-26T22:05:12.480Z,97155.84
2022-09-26T22:07:39.070Z,97151.41
2022-09-26T22:10:06.729Z,97157.34
2022-09-26T22:12:34.090Z,97154.84
2022-09-26T22:15:01.054Z,97143.91
2022-09-26T22:17:27.502Z,97154.91
2022-09-26T22:19:54.234Z,97137.13
2022-09-26T22:22:21.572Z,97129.78
2022-09-26T22:24:48.070Z,97115.19
2022-09-26T22:27:14.489Z,97118.97
2022-09-26T22:29:40.947Z,97109.38
2022-09-26T22:32:07.466Z,97109.66
2022-09-26T22:34:33.911Z,97096.88
2022-09-26T22:37:00.414Z,97089.38
2022-09-26T22:39:26.840Z,97080.78
2022-09-26T22:41:53.221Z,97080.22
2022-09-26T22:44:20.000Z,97068.53
2022-09-26T22:46:46.399Z,97065.38
2022-09-26T22:49:12.946Z,97065.97
2022-09-26T22:51:39.486Z,97064.44
2022-09-26T22:54:05.926Z,97052.66
2022-09-26T22:56:32.339Z,97060.69
2022-09-26T22:58:58.831Z,97040.34
2022-09-26T23:01:27.504Z,97051.13
2022-09-26T23:03:54.471Z,97055.22
2022-09-26T23:06:22.466Z,97039.66
2022-09-26T23:08:49.285Z,97037.09
2022-09-26T23:11:17.178Z,97029.13
2022-09-26T23:13:45.078Z,97039.84
2022-09-26T23:16:17.276Z,97039.75
2022-09-26T23:18:44.462Z,97031.81
2022-09-26T23:21:11.963Z,97026.19
2022-09-26T23:23:38.836Z,97028.22
2022-09-26T23:26:07.022Z,97029.91
2022-09-26T23:28:34.154Z,97027.28
2022-09-26T23:31:08.233Z,97026.50
2022-09-26T23:33:34.765Z,97029.97
2022-09-26T23:36:01.817Z,97029.56
2022-09-26T23:38:28.949Z,97028.47
2022-09-26T23:40:56.178Z,97028.25
2022-09-26T23:43:22.908Z,97023.00
2022-09-26T23:45:49.640Z,97016.22
2022-09-26T23:48:16.228Z,97029.94
2022-09-26T23:50:44.990Z,97027.47
2022-09-26T23:53:12.199Z,97026.19
2022-09-26T23:55:38.622Z,97024.00
2022-09-26T23:58:05.755Z,97027.72
